Time;durP1;ratioP1;P1;durP2;ratioP2;P2;SDS_P1;SDS_P2;PMS_P1;PMS_P2;Temp;Humidity;BMP_temperature;BMP_pressure;BME280_temperature;BME280_humidity;BME280_pressure;Samples;Min_cycle;Max_cycle;Signal;HPM_P1;HPM_P2
2022/05/15 00:01:54;;;;;;;14.70;4.20;;;;;;;;;;4991854;28;20096;-68
2022/05/15 00:04:21;;;;;;;13.50;3.85;;;;;;;;;;4991828;28;20079;-68
2022/05/15 00:06:47;;;;;;;15.35;3.80;;;;;;;;;;4991595;28;20726;-68
2022/05/15 00:09:13;;;;;;;15.32;4.25;;;;;;;;;;4991831;28;20030;-69
2022/05/15 00:11:39;;;;;;;13.50;3.75;;;;;;;;;;4992262;28;20040;-68
2022/05/15 00:14:05;;;;;;;17.45;4.88;;;;;;;;;;4991255;28;20479;-68
2022/05/15 00:16:31;;;;;;;11.68;3.97;;;;;;;;;;4991815;28;20035;-69
2022/05/15 00:18:58;;;;;;;13.82;3.33;;;;;;;;;;5002554;28;20022;-68
2022/05/15 00:21:24;;;;;;;13.00;4.18;;;;;;;;;;5010998;28;20957;-68
2022/05/15 00:23:51;;;;;;;11.18;4.07;;;;;;;;;;5011747;28;20049;-68
2022/05/15 00:26:17;;;;;;;14.43;3.80;;;;;;;;;;5011246;28;20042;-68
2022/05/15 00:28:43;;;;;;;13.07;3.50;;;;;;;;;;5011203;28;20030;-68
2022/05/15 00:31:09;;;;;;;12.00;3.70;;;;;;;;;;5011161;28;20736;-68
2022/05/15 00:36:39;;;;;;;13.68;3.60;;;;;;;;;;4991027;28;20049;-68
2022/05/15 00:39:06;;;;;;;13.23;3.65;;;;;;;;;;4991551;28;20014;-67
2022/05/15 00:41:33;;;;;;;12.52;3.30;;;;;;;;;;5018484;28;20025;-68
2022/05/15 00:43:59;;;;;;;11.18;3.67;;;;;;;;;;5010706;28;20030;-68
2022/05/15 00:46:28;;;;;;;13.10;3.75;;;;;;;;;;5010895;28;20033;-68
2022/05/15 00:48:55;;;;;;;14.43;3.58;;;;;;;;;;5010861;28;20028;-68
2022/05/15 00:51:21;;;;;;;12.05;3.88;;;;;;;;;;5009947;28;20049;-68
2022/05/15 00:53:49;;;;;;;11.88;3.50;;;;;;;;;;5011048;28;20030;-67
2022/05/15 00:56:16;;;;;;;15.35;4.00;;;;;;;;;;5010765;28;20022;-67
2022/05/15 00:58:47;;;;;;;12.23;3.60;;;;;;;;;;5010959;28;20165;-67
2022/05/15 01:01:14;;;;;;;11.10;3.78;;;;;;;;;;5011050;28;20041;-67
2022/05/15 01:03:42;;;;;;;13.57;4.63;;;;;;;;;;5010938;28;20018;-67
2022/05/15 01:06:09;;;;;;;16.13;4.20;;;;;;;;;;5010920;28;20044;-67
2022/05/15 01:08:35;;;;;;;12.82;4.53;;;;;;;;;;5010171;28;20497;-68
2022/05/15 01:11:05;;;;;;;13.52;4.43;;;;;;;;;;5011102;28;20398;-69
2022/05/15 01:13:34;;;;;;;16.70;4.47;;;;;;;;;;5010699;28;20406;-70
2022/05/15 01:16:00;;;;;;;12.20;4.57;;;;;;;;;;5010495;28;20034;-70
2022/05/15 01:18:27;;;;;;;14.48;4.90;;;;;;;;;;5011030;28;20033;-70
2022/05/15 01:21:12;;;;;;;15.77;4.45;;;;;;;;;;5010341;28;20050;-70
2022/05/15 01:23:38;;;;;;;13.30;4.93;;;;;;;;;;5008607;28;20034;-69
2022/05/15 01:26:04;;;;;;;17.13;4.68;;;;;;;;;;4990975;28;20033;-69
2022/05/15 01:28:30;;;;;;;14.90;5.43;;;;;;;;;;4991161;28;20022;-69
2022/05/15 01:31:00;;;;;;;18.17;5.13;;;;;;;;;;4994708;28;20034;-68
2022/05/15 01:33:26;;;;;;;17.95;4.95;;;;;;;;;;4994452;28;20029;-67
2022/05/15 01:35:52;;;;;;;14.65;4.95;;;;;;;;;;4994409;28;20045;-68
2022/05/15 01:38:19;;;;;;;15.40;5.20;;;;;;;;;;4994480;28;20030;-67
2022/05/15 01:40:46;;;;;;;15.45;4.85;;;;;;;;;;4999292;28;20030;-68
2022/05/15 01:43:12;;;;;;;21.27;5.65;;;;;;;;;;5014150;28;20092;-67
2022/05/15 01:45:38;;;;;;;19.20;5.45;;;;;;;;;;5013676;28;20045;-67
2022/05/15 01:48:04;;;;;;;19.05;5.28;;;;;;;;;;5001255;28;20023;-67
2022/05/15 01:50:30;;;;;;;19.15;5.47;;;;;;;;;;4993961;28;20038;-68
2022/05/15 01:52:56;;;;;;;13.75;5.05;;;;;;;;;;4993996;28;20142;-70
2022/05/15 01:55:22;;;;;;;18.77;6.55;;;;;;;;;;4994186;28;20027;-68
2022/05/15 01:57:48;;;;;;;17.73;5.68;;;;;;;;;;4994637;28;20065;-68
2022/05/15 02:00:19;;;;;;;16.40;5.35;;;;;;;;;;4994011;28;20494;-68
2022/05/15 02:02:45;;;;;;;23.30;5.85;;;;;;;;;;4993970;28;20088;-67
2022/05/15 02:05:11;;;;;;;20.58;5.10;;;;;;;;;;4994166;28;20073;-68
2022/05/15 02:07:38;;;;;;;16.45;5.45;;;;;;;;;;4993713;28;20038;-67
2022/05/15 02:10:05;;;;;;;17.63;6.32;;;;;;;;;;4993927;28;20018;-68
2022/05/15 02:12:31;;;;;;;13.75;5.32;;;;;;;;;;4993744;28;20034;-67
2022/05/15 02:14:57;;;;;;;15.73;5.82;;;;;;;;;;4994184;28;20073;-68
2022/05/15 02:17:24;;;;;;;15.73;6.07;;;;;;;;;;4993488;28;20061;-67
2022/05/15 02:19:50;;;;;;;19.75;5.72;;;;;;;;;;4995703;28;20038;-68
2022/05/15 02:22:16;;;;;;;17.83;5.93;;;;;;;;;;5013038;28;20048;-67
2022/05/15 02:24:42;;;;;;;16.20;6.63;;;;;;;;;;5028450;28;20033;-68
2022/05/15 02:27:08;;;;;;;12.38;5.82;;;;;;;;;;5012909;28;20129;-68
2022/05/15 02:29:34;;;;;;;14.73;5.57;;;;;;;;;;5013159;28;20030;-68
2022/05/15 02:32:01;;;;;;;17.02;5.97;;;;;;;;;;5012336;28;20026;-68
2022/05/15 02:34:27;;;;;;;14.40;5.55;;;;;;;;;;5028249;28;20026;-68
2022/05/15 02:36:53;;;;;;;19.73;6.18;;;;;;;;;;5012628;28;20041;-66
2022/05/15 02:39:19;;;;;;;18.05;5.90;;;;;;;;;;5013036;28;20029;-67
2022/05/15 02:41:45;;;;;;;14.98;5.50;;;;;;;;;;5012743;28;20096;-67
2022/05/15 02:44:11;;;;;;;17.42;6.22;;;;;;;;;;5012530;28;20014;-67
2022/05/15 02:46:37;;;;;;;19.83;6.20;;;;;;;;;;5012283;28;20419;-67
2022/05/15 02:51:49;;;;;;;13.82;5.90;;;;;;;;;;5012570;28;20045;-67
2022/05/15 02:54:15;;;;;;;14.13;5.93;;;;;;;;;;5012450;28;20478;-67
2022/05/15 02:56:42;;;;;;;15.68;5.90;;;;;;;;;;5012394;28;20037;-67
2022/05/15 02:59:09;;;;;;;18.27;6.10;;;;;;;;;;5012608;28;20048;-68
2022/05/15 03:01:35;;;;;;;14.52;6.05;;;;;;;;;;5012353;28;20549;-67
2022/05/15 03:04:01;;;;;;;18.98;6.28;;;;;;;;;;5012274;28;20494;-67
2022/05/15 03:06:27;;;;;;;15.48;6.60;;;;;;;;;;5011139;28;20069;-67
2022/05/15 03:08:54;;;;;;;21.33;6.30;;;;;;;;;;5011994;28;20049;-66
2022/05/15 03:11:20;;;;;;;22.65;7.30;;;;;;;;;;5012105;28;20033;-68
2022/05/15 03:13:47;;;;;;;14.38;6.32;;;;;;;;;;5012167;28;20044;-67
2022/05/15 03:16:13;;;;;;;19.13;6.85;;;;;;;;;;5012123;28;20060;-67
2022/05/15 03:18:41;;;;;;;17.90;6.72;;;;;;;;;;5012021;28;20026;-68
2022/05/15 03:21:07;;;;;;;17.35;7.10;;;;;;;;;;5026625;28;20112;-68
2022/05/15 03:23:34;;;;;;;17.35;6.82;;;;;;;;;;5011024;28;20386;-68
2022/05/15 03:26:00;;;;;;;17.85;6.55;;;;;;;;;;5011491;28;20022;-67
2022/05/15 03:28:26;;;;;;;22.05;6.82;;;;;;;;;;5011799;28;20558;-68
2022/05/15 03:30:52;;;;;;;21.05;6.80;;;;;;;;;;5012025;28;20022;-67
2022/05/15 03:33:18;;;;;;;20.45;7.47;;;;;;;;;;5011898;28;20037;-67
2022/05/15 03:35:44;;;;;;;22.95;7.82;;;;;;;;;;5011606;28;20022;-67
2022/05/15 03:38:11;;;;;;;24.38;7.43;;;;;;;;;;5011681;28;20041;-67
2022/05/15 03:40:37;;;;;;;18.25;7.32;;;;;;;;;;5001761;28;20030;-67
2022/05/15 03:43:03;;;;;;;17.20;7.57;;;;;;;;;;5009827;28;20022;-67
2022/05/15 03:45:30;;;;;;;22.65;7.78;;;;;;;;;;5011607;28;20497;-67
2022/05/15 03:47:56;;;;;;;22.88;8.25;;;;;;;;;;5011508;28;20080;-67
2022/05/15 03:50:26;;;;;;;24.23;8.50;;;;;;;;;;5011414;28;20028;-68
2022/05/15 03:52:52;;;;;;;16.63;8.15;;;;;;;;;;4995797;28;20026;-68
2022/05/15 03:55:18;;;;;;;25.58;8.27;;;;;;;;;;5007673;28;20026;-68
2022/05/15 03:57:45;;;;;;;18.73;7.82;;;;;;;;;;5010075;28;20119;-68
2022/05/15 04:00:12;;;;;;;25.40;7.85;;;;;;;;;;5026291;28;20045;-68
2022/05/15 04:02:39;;;;;;;19.02;7.38;;;;;;;;;;5011339;28;20029;-69
2022/05/15 04:05:06;;;;;;;20.90;7.82;;;;;;;;;;5010914;28;20030;-66
2022/05/15 04:07:32;;;;;;;22.33;7.65;;;;;;;;;;5010475;28;20518;-67
2022/05/15 04:09:58;;;;;;;19.52;7.85;;;;;;;;;;5010898;28;20050;-67
2022/05/15 04:12:24;;;;;;;23.88;8.45;;;;;;;;;;5011476;28;20030;-68
2022/05/15 04:14:50;;;;;;;17.33;7.82;;;;;;;;;;5009955;28;20072;-67
2022/05/15 04:17:16;;;;;;;21.58;7.68;;;;;;;;;;5010869;28;20026;-68
2022/05/15 04:19:42;;;;;;;16.17;8.15;;;;;;;;;;5010713;28;20029;-68
2022/05/15 04:22:09;;;;;;;22.20;8.30;;;;;;;;;;5010761;28;20068;-68
2022/05/15 04:24:36;;;;;;;22.40;7.78;;;;;;;;;;5010823;28;20393;-67
2022/05/15 04:27:03;;;;;;;27.05;7.85;;;;;;;;;;5010701;28;20521;-68
2022/05/15 04:29:29;;;;;;;25.67;7.65;;;;;;;;;;5010849;28;20553;-68
2022/05/15 04:31:56;;;;;;;23.52;7.70;;;;;;;;;;5009933;28;20026;-68
2022/05/15 04:34:26;;;;;;;20.77;8.05;;;;;;;;;;5010810;28;20061;-68
2022/05/15 04:36:52;;;;;;;25.45;7.88;;;;;;;;;;5010830;28;20173;-67
2022/05/15 04:39:19;;;;;;;24.25;8.23;;;;;;;;;;5010961;28;20049;-67
2022/05/15 04:41:45;;;;;;;26.08;8.43;;;;;;;;;;5011011;28;20037;-68
2022/05/15 04:44:11;;;;;;;20.55;7.93;;;;;;;;;;5010927;28;20022;-67
2022/05/15 04:46:38;;;;;;;18.42;7.57;;;;;;;;;;5010795;28;20040;-67
2022/05/15 04:49:05;;;;;;;27.00;9.05;;;;;;;;;;5009961;28;20026;-67
2022/05/15 04:51:31;;;;;;;18.50;7.75;;;;;;;;;;5010700;28;20026;-67
2022/05/15 04:53:57;;;;;;;18.33;7.90;;;;;;;;;;5025781;28;20383;-67
2022/05/15 04:56:24;;;;;;;25.58;8.70;;;;;;;;;;5010690;28;20030;-67
2022/05/15 04:58:50;;;;;;;22.70;8.38;;;;;;;;;;5010844;28;20056;-67
2022/05/15 05:01:17;;;;;;;19.13;7.93;;;;;;;;;;5010905;28;20383;-68
2022/05/15 05:03:44;;;;;;;20.85;8.38;;;;;;;;;;5011036;28;20169;-67
2022/05/15 05:06:11;;;;;;;23.95;8.80;;;;;;;;;;4999402;28;20089;-67
2022/05/15 05:08:37;;;;;;;19.05;7.85;;;;;;;;;;4995005;28;20026;-67
2022/05/15 05:11:03;;;;;;;20.27;8.10;;;;;;;;;;4994910;28;20041;-67
2022/05/15 05:13:29;;;;;;;21.77;7.85;;;;;;;;;;4994702;28;20061;-68
2022/05/15 05:15:55;;;;;;;23.38;7.40;;;;;;;;;;4994671;28;20022;-67
2022/05/15 05:18:21;;;;;;;24.05;8.35;;;;;;;;;;4994673;28;20022;-67
2022/05/15 05:20:48;;;;;;;17.35;7.55;;;;;;;;;;5004563;28;20148;-67
2022/05/15 05:23:14;;;;;;;22.27;8.13;;;;;;;;;;5013004;28;20529;-69
2022/05/15 05:25:40;;;;;;;19.98;7.68;;;;;;;;;;5013917;28;20034;-68
2022/05/15 05:28:07;;;;;;;17.90;7.28;;;;;;;;;;5013731;28;20121;-68
2022/05/15 05:30:34;;;;;;;21.27;8.23;;;;;;;;;;5013888;28;20026;-68
2022/05/15 05:33:00;;;;;;;27.33;7.95;;;;;;;;;;5029077;28;20045;-68
2022/05/15 05:35:27;;;;;;;18.85;7.60;;;;;;;;;;5013883;28;20084;-67
2022/05/15 05:37:53;;;;;;;23.35;7.65;;;;;;;;;;5014114;28;20026;-69
2022/05/15 05:40:20;;;;;;;19.48;7.70;;;;;;;;;;5013117;28;20379;-68
2022/05/15 05:42:46;;;;;;;19.90;7.43;;;;;;;;;;5013844;28;20038;-68
2022/05/15 05:45:12;;;;;;;21.70;8.23;;;;;;;;;;5013598;28;20044;-68
2022/05/15 05:47:38;;;;;;;17.38;8.35;;;;;;;;;;5013734;28;20092;-68
2022/05/15 05:50:08;;;;;;;21.95;7.65;;;;;;;;;;5013463;28;20022;-68
2022/05/15 05:52:35;;;;;;;20.80;8.13;;;;;;;;;;5013355;28;20036;-68
2022/05/15 05:55:01;;;;;;;17.52;7.93;;;;;;;;;;5013706;28;20049;-68
2022/05/15 05:57:27;;;;;;;19.58;7.65;;;;;;;;;;5012855;28;20466;-68
2022/05/15 05:59:53;;;;;;;24.10;8.43;;;;;;;;;;5013777;28;20033;-68
2022/05/15 06:02:19;;;;;;;20.15;8.40;;;;;;;;;;5013416;28;20018;-68
2022/05/15 06:04:46;;;;;;;16.30;7.50;;;;;;;;;;5013188;28;20033;-69
2022/05/15 06:07:16;;;;;;;18.15;7.57;;;;;;;;;;5012979;28;20030;-68
2022/05/15 06:09:45;;;;;;;21.48;7.68;;;;;;;;;;5013299;28;20025;-68
2022/05/15 06:12:13;;;;;;;25.33;8.85;;;;;;;;;;5013237;28;20037;-68
2022/05/15 06:14:39;;;;;;;16.75;7.90;;;;;;;;;;5012060;28;20388;-68
2022/05/15 06:17:06;;;;;;;23.63;8.60;;;;;;;;;;5013220;28;20083;-68
2022/05/15 06:19:32;;;;;;;18.60;8.18;;;;;;;;;;5028103;28;20018;-68
2022/05/15 06:21:59;;;;;;;18.48;8.27;;;;;;;;;;5012945;28;20038;-69
2022/05/15 06:24:27;;;;;;;20.67;9.05;;;;;;;;;;5013145;28;20030;-68
2022/05/15 06:26:54;;;;;;;21.17;8.75;;;;;;;;;;5011906;28;20037;-68
2022/05/15 06:29:20;;;;;;;24.48;9.05;;;;;;;;;;5012916;28;20113;-67
2022/05/15 06:31:50;;;;;;;25.52;10.13;;;;;;;;;;4993723;28;20042;-68
2022/05/15 06:34:16;;;;;;;21.02;9.38;;;;;;;;;;4996747;28;20021;-68
2022/05/15 06:36:42;;;;;;;21.70;9.25;;;;;;;;;;5009106;28;20487;-68
2022/05/15 06:39:08;;;;;;;23.48;9.32;;;;;;;;;;5011699;28;20026;-67
2022/05/15 06:41:34;;;;;;;23.38;8.70;;;;;;;;;;5012590;28;20030;-68
2022/05/15 06:44:00;;;;;;;21.30;8.65;;;;;;;;;;5012514;28;20022;-67
2022/05/15 06:46:27;;;;;;;25.95;9.05;;;;;;;;;;5005377;28;20033;-67
2022/05/15 06:48:53;;;;;;;22.27;9.60;;;;;;;;;;5007682;28;20044;-67
2022/05/15 06:51:20;;;;;;;23.38;9.30;;;;;;;;;;5005483;28;20156;-67
2022/05/15 06:53:47;;;;;;;18.88;8.25;;;;;;;;;;5010157;28;20049;-67
2022/05/15 06:58:58;;;;;;;20.77;8.43;;;;;;;;;;5009811;28;20533;-67
2022/05/15 07:01:24;;;;;;;20.13;8.55;;;;;;;;;;5012433;28;20033;-68
2022/05/15 07:03:51;;;;;;;21.15;8.50;;;;;;;;;;5008604;28;20054;-67
2022/05/15 07:06:17;;;;;;;20.83;8.15;;;;;;;;;;5005670;28;20120;-67
2022/05/15 07:08:43;;;;;;;20.38;8.60;;;;;;;;;;5009614;28;20014;-67
2022/05/15 07:11:10;;;;;;;19.83;8.55;;;;;;;;;;5006249;28;20018;-67
2022/05/15 07:13:36;;;;;;;22.10;7.80;;;;;;;;;;5006073;28;20474;-67
2022/05/15 07:16:03;;;;;;;16.80;7.18;;;;;;;;;;5007838;28;20080;-67
2022/05/15 07:18:29;;;;;;;22.42;7.82;;;;;;;;;;5010486;28;20113;-67
2022/05/15 07:20:55;;;;;;;23.58;7.82;;;;;;;;;;5006792;28;20042;-67
2022/05/15 07:23:22;;;;;;;18.10;7.50;;;;;;;;;;4991837;28;20030;-68
2022/05/15 07:25:48;;;;;;;21.08;7.13;;;;;;;;;;5009331;28;20034;-67
2022/05/15 07:28:15;;;;;;;18.08;7.85;;;;;;;;;;5003354;28;20042;-68
2022/05/15 07:30:41;;;;;;;20.30;7.68;;;;;;;;;;5011076;28;20030;-67
2022/05/15 07:33:08;;;;;;;23.15;8.07;;;;;;;;;;5010973;28;20060;-68
2022/05/15 07:35:34;;;;;;;22.80;7.95;;;;;;;;;;5007335;28;20026;-66
2022/05/15 07:38:00;;;;;;;20.27;7.63;;;;;;;;;;5002541;28;20057;-67
2022/05/15 07:40:27;;;;;;;18.88;7.53;;;;;;;;;;5005998;28;20328;-67
2022/05/15 07:42:53;;;;;;;22.38;7.85;;;;;;;;;;5010377;28;20033;-67
2022/05/15 07:45:19;;;;;;;17.20;7.50;;;;;;;;;;5010313;28;20089;-67
2022/05/15 07:47:46;;;;;;;22.52;8.32;;;;;;;;;;4999378;28;20081;-67
2022/05/15 07:50:13;;;;;;;16.90;7.38;;;;;;;;;;5004155;28;20109;-67
2022/05/15 07:52:39;;;;;;;22.23;8.10;;;;;;;;;;5001029;28;20034;-68
2022/05/15 07:55:06;;;;;;;24.27;8.13;;;;;;;;;;5005262;28;20463;-67
2022/05/15 07:57:34;;;;;;;22.45;7.47;;;;;;;;;;4991771;28;20026;-68
2022/05/15 08:00:00;;;;;;;19.05;7.53;;;;;;;;;;4992084;28;20092;-68
2022/05/15 08:02:26;;;;;;;22.55;8.35;;;;;;;;;;5000565;28;20041;-68
2022/05/15 08:10:22;;;;;;;25.23;8.52;;;;;;;;;;5011473;28;20037;-68
2022/05/15 08:12:48;;;;;;;18.65;9.45;;;;;;;;;;4999891;28;20030;-67
2022/05/15 08:15:14;;;;;;;22.95;8.73;;;;;;;;;;5003281;28;20394;-67
2022/05/15 08:17:40;;;;;;;22.02;8.60;;;;;;;;;;5017790;28;20033;-67
2022/05/15 08:25:40;;;;;;;21.05;9.00;;;;;;;;;;5008968;28;20037;-67
2022/05/15 08:28:07;;;;;;;21.20;9.60;;;;;;;;;;5009648;28;20038;-69
2022/05/15 08:30:34;;;;;;;24.60;9.85;;;;;;;;;;4992921;28;20030;-71
2022/05/15 08:33:00;;;;;;;27.20;10.68;;;;;;;;;;5004933;28;20117;-74
2022/05/15 08:35:28;;;;;;;24.17;11.13;;;;;;;;;;5009088;28;20063;-70
2022/05/15 08:37:54;;;;;;;24.40;10.07;;;;;;;;;;5001943;28;20419;-73
2022/05/15 08:40:24;;;;;;;24.05;10.85;;;;;;;;;;5008469;28;20117;-71
2022/05/15 08:42:54;;;;;;;24.98;11.55;;;;;;;;;;5039028;28;20037;-72
2022/05/15 08:45:23;;;;;;;24.55;11.48;;;;;;;;;;5013145;28;20030;-71
2022/05/15 08:47:56;;;;;;;23.38;11.65;;;;;;;;;;5010117;28;20038;-70
2022/05/15 08:50:27;;;;;;;22.10;11.27;;;;;;;;;;5014755;28;20483;-71
2022/05/15 08:52:55;;;;;;;24.88;11.40;;;;;;;;;;5016024;28;20044;-76
2022/05/15 08:55:35;;;;;;;25.75;10.95;;;;;;;;;;5016084;28;20030;-72
2022/05/15 08:58:10;;;;;;;21.10;10.20;;;;;;;;;;5013137;28;20109;-70
2022/05/15 09:00:38;;;;;;;25.85;9.35;;;;;;;;;;5014765;28;20029;-69
2022/05/15 09:03:11;;;;;;;21.42;10.10;;;;;;;;;;5008463;28;20046;-69
2022/05/15 09:05:37;;;;;;;19.08;10.40;;;;;;;;;;4995385;28;20034;-69
2022/05/15 09:08:19;;;;;;;26.95;10.32;;;;;;;;;;4994942;28;20485;-70
2022/05/15 09:10:53;;;;;;;22.60;9.77;;;;;;;;;;5005920;28;20065;-69
2022/05/15 09:13:27;;;;;;;22.65;9.27;;;;;;;;;;5005322;28;20478;-70
2022/05/15 09:15:58;;;;;;;20.58;9.75;;;;;;;;;;5032430;28;20120;-71
2022/05/15 09:18:24;;;;;;;24.98;9.68;;;;;;;;;;5033844;28;20034;-70
2022/05/15 09:20:54;;;;;;;20.48;9.38;;;;;;;;;;5018828;28;20044;-70
2022/05/15 09:23:27;;;;;;;21.38;10.15;;;;;;;;;;5014619;28;20115;-70
2022/05/15 09:25:54;;;;;;;22.42;9.20;;;;;;;;;;5008354;28;20033;-69
2022/05/15 09:28:20;;;;;;;24.98;9.55;;;;;;;;;;5014385;28;20034;-69
2022/05/15 09:30:48;;;;;;;21.98;8.85;;;;;;;;;;5014071;28;20034;-68
2022/05/15 09:33:34;;;;;;;16.42;8.77;;;;;;;;;;5012241;28;20057;-69
2022/05/15 09:36:19;;;;;;;22.17;8.85;;;;;;;;;;5007782;28;20042;-68
2022/05/15 09:38:46;;;;;;;20.27;8.80;;;;;;;;;;5010215;28;20108;-68
2022/05/15 09:44:01;;;;;;;24.65;9.48;;;;;;;;;;5011514;28;20045;-67
2022/05/15 09:46:27;;;;;;;17.15;8.13;;;;;;;;;;5002386;28;20030;-68
2022/05/15 09:49:17;;;;;;;19.02;7.63;;;;;;;;;;5013537;28;20390;-67
2022/05/15 09:51:52;;;;;;;16.77;7.68;;;;;;;;;;4990620;28;20046;-68
2022/05/15 09:54:34;;;;;;;15.07;7.68;;;;;;;;;;5010365;28;20038;-68
2022/05/15 09:57:09;;;;;;;16.15;7.20;;;;;;;;;;5025558;28;20030;-68
2022/05/15 09:59:36;;;;;;;20.52;7.10;;;;;;;;;;5013311;28;20022;-67
2022/05/15 10:02:02;;;;;;;17.67;6.55;;;;;;;;;;5010970;28;20022;-68
2022/05/15 10:04:33;;;;;;;15.55;7.60;;;;;;;;;;5011499;28;20022;-67
2022/05/15 10:07:02;;;;;;;18.70;7.70;;;;;;;;;;5012767;28;20501;-67
2022/05/15 10:09:36;;;;;;;16.75;7.57;;;;;;;;;;5006589;28;20159;-67
2022/05/15 10:12:05;;;;;;;21.33;7.35;;;;;;;;;;4999777;28;20053;-67
2022/05/15 10:14:48;;;;;;;15.40;7.25;;;;;;;;;;4993516;28;20034;-68
2022/05/15 10:17:15;;;;;;;14.02;6.60;;;;;;;;;;4993648;28;20085;-68
2022/05/15 10:19:53;;;;;;;15.27;6.75;;;;;;;;;;4996111;28;20084;-68
2022/05/15 10:22:19;;;;;;;16.98;7.13;;;;;;;;;;5012799;28;20042;-67
2022/05/15 10:24:46;;;;;;;14.85;6.82;;;;;;;;;;5012725;28;20042;-68
2022/05/15 10:27:19;;;;;;;13.88;6.95;;;;;;;;;;5011188;28;20041;-68
2022/05/15 10:29:48;;;;;;;21.25;7.25;;;;;;;;;;4993591;28;20041;-67
2022/05/15 10:32:18;;;;;;;18.88;7.70;;;;;;;;;;5008621;28;20370;-67
2022/05/15 10:34:44;;;;;;;19.30;7.60;;;;;;;;;;5011083;28;20022;-67
2022/05/15 10:37:20;;;;;;;14.18;7.75;;;;;;;;;;5010291;28;20037;-67
2022/05/15 10:39:49;;;;;;;16.20;7.10;;;;;;;;;;5012447;28;20034;-68
2022/05/15 10:42:21;;;;;;;17.75;6.65;;;;;;;;;;5012605;28;20032;-68
2022/05/15 10:44:53;;;;;;;16.98;6.43;;;;;;;;;;5009244;28;20369;-67
2022/05/15 10:47:23;;;;;;;17.60;6.47;;;;;;;;;;4992491;28;20046;-67
2022/05/15 10:49:52;;;;;;;18.23;6.32;;;;;;;;;;5007506;28;20018;-67
2022/05/15 10:52:21;;;;;;;13.65;7.03;;;;;;;;;;4992599;28;20042;-67
2022/05/15 10:57:47;;;;;;;15.75;7.47;;;;;;;;;;4992069;28;20049;-67
2022/05/15 11:00:21;;;;;;;11.85;7.03;;;;;;;;;;4992550;28;20053;-67
2022/05/15 11:02:56;;;;;;;19.35;8.38;;;;;;;;;;4993335;28;20030;-67
2022/05/15 11:05:28;;;;;;;13.35;7.15;;;;;;;;;;4992757;28;20026;-68
2022/05/15 11:08:06;;;;;;;15.02;6.47;;;;;;;;;;4992860;28;20058;-66
2022/05/15 11:10:36;;;;;;;13.75;6.57;;;;;;;;;;4992464;28;20053;-67
2022/05/15 11:13:09;;;;;;;15.55;6.25;;;;;;;;;;5007418;28;20049;-68
2022/05/15 11:15:47;;;;;;;13.25;5.97;;;;;;;;;;5007228;28;20045;-68
2022/05/15 11:18:16;;;;;;;11.63;6.00;;;;;;;;;;4992476;28;20030;-68
2022/05/15 11:20:47;;;;;;;17.05;12.82;;;;;;;;;;5012035;28;20148;-70
2022/05/15 11:23:20;;;;;;;13.85;6.68;;;;;;;;;;5012140;28;20046;-69
2022/05/15 11:25:51;;;;;;;16.70;6.72;;;;;;;;;;5011796;28;20091;-69
2022/05/15 11:28:17;;;;;;;11.43;6.45;;;;;;;;;;5011798;28;20034;-68
2022/05/15 11:30:45;;;;;;;13.07;6.70;;;;;;;;;;5011687;28;20030;-68
2022/05/15 11:33:17;;;;;;;14.32;7.38;;;;;;;;;;5012191;28;20026;-68
2022/05/15 11:36:02;;;;;;;15.00;6.95;;;;;;;;;;5011024;28;20065;-68
2022/05/15 11:38:29;;;;;;;15.77;6.97;;;;;;;;;;5011549;28;20375;-68
2022/05/15 11:40:56;;;;;;;12.25;7.45;;;;;;;;;;5026937;28;20040;-69
2022/05/15 11:43:28;;;;;;;18.45;7.65;;;;;;;;;;5012456;28;20029;-70
2022/05/15 11:46:02;;;;;;;16.60;8.25;;;;;;;;;;5013196;28;20049;-73
2022/05/15 11:48:28;;;;;;;;;;;;;;;;;;5013138;28;20030;-72
2022/05/15 11:51:05;;;;;;;14.82;8.18;;;;;;;;;;5010154;28;19957;-72
2022/05/15 11:53:47;;;;;;;18.17;7.72;;;;;;;;;;5002854;28;20505;-70
2022/05/15 11:56:22;;;;;;;15.32;8.20;;;;;;;;;;5010545;28;20029;-70
2022/05/15 11:59:21;;;;;;;15.60;8.93;;;;;;;;;;5010412;28;20045;-70
2022/05/15 12:02:07;;;;;;;19.33;8.50;;;;;;;;;;4989205;28;20087;-71
2022/05/15 12:04:36;;;;;;;19.60;9.23;;;;;;;;;;5001949;28;20038;-70
2022/05/15 12:07:02;;;;;;;20.25;10.25;;;;;;;;;;5006330;28;20510;-69
2022/05/15 12:09:52;;;;;;;14.02;9.38;;;;;;;;;;5001895;28;20048;-68
2022/05/15 12:12:24;;;;;;;16.13;9.43;;;;;;;;;;4998782;28;20094;-68
2022/05/15 12:15:10;;;;;;;17.50;10.38;;;;;;;;;;5007172;28;20072;-68
2022/05/15 12:17:44;;;;;;;22.98;11.23;;;;;;;;;;5003475;28;20041;-68
2022/05/15 12:20:10;;;;;;;;;;;;;;;;;;5008376;28;20030;-69
2022/05/15 12:22:38;;;;;;;19.02;11.25;;;;;;;;;;5006396;28;19960;-68
2022/05/15 12:25:11;;;;;;;19.75;10.50;;;;;;;;;;5007971;28;20042;-68
2022/05/15 12:27:37;;;;;;;;;;;;;;;;;;5002400;28;20069;-68
2022/05/15 12:30:18;;;;;;;18.30;11.07;;;;;;;;;;5001840;28;19956;-67
2022/05/15 12:33:01;;;;;;;15.98;10.35;;;;;;;;;;4990395;28;20026;-68
2022/05/15 12:35:35;;;;;;;21.10;9.65;;;;;;;;;;4991920;28;20034;-66
2022/05/15 12:38:01;;;;;;;18.25;9.20;;;;;;;;;;5005689;28;20030;-67
2022/05/15 12:40:29;;;;;;;17.55;9.07;;;;;;;;;;5007628;28;20018;-66
2022/05/15 12:42:57;;;;;;;13.23;8.45;;;;;;;;;;5009103;28;20491;-67
2022/05/15 12:45:23;;;;;;;23.23;9.95;;;;;;;;;;5004687;28;20037;-67
2022/05/15 12:48:00;;;;;;;18.80;9.95;;;;;;;;;;5010175;28;20038;-66
2022/05/15 12:50:26;;;;;;;21.75;10.23;;;;;;;;;;5004427;28;20049;-66
2022/05/15 12:52:53;;;;;;;19.98;9.75;;;;;;;;;;5006776;28;20029;-67
2022/05/15 12:55:25;;;;;;;20.30;9.82;;;;;;;;;;5006581;28;20018;-67
2022/05/15 12:57:53;;;;;;;19.65;10.15;;;;;;;;;;5010993;28;20068;-66
2022/05/15 13:00:23;;;;;;;19.15;9.20;;;;;;;;;;5007215;28;20057;-67
2022/05/15 13:02:49;;;;;;;18.92;9.77;;;;;;;;;;5004307;28;20034;-67
2022/05/15 13:05:21;;;;;;;21.13;10.20;;;;;;;;;;5002866;28;20037;-67
2022/05/15 13:07:53;;;;;;;16.90;9.07;;;;;;;;;;4997893;28;20402;-67
2022/05/15 13:10:22;;;;;;;18.50;9.15;;;;;;;;;;5002206;28;20025;-68
2022/05/15 13:13:10;;;;;;;18.60;9.50;;;;;;;;;;5001346;28;20049;-67
2022/05/15 13:15:37;;;;;;;16.70;9.43;;;;;;;;;;5001053;28;20034;-68
2022/05/15 13:18:08;;;;;;;16.60;9.07;;;;;;;;;;5000505;28;20042;-68
2022/05/15 13:20:37;;;;;;;16.42;8.70;;;;;;;;;;5000090;28;20065;-68
2022/05/15 13:23:03;;;;;;;15.15;9.73;;;;;;;;;;5010838;28;20045;-67
2022/05/15 13:25:41;;;;;;;20.88;10.05;;;;;;;;;;5007107;28;20022;-68
2022/05/15 13:28:10;;;;;;;23.02;10.55;;;;;;;;;;5011204;28;20046;-66
2022/05/15 13:30:37;;;;;;;23.05;11.05;;;;;;;;;;5011498;28;20474;-68
2022/05/15 13:33:07;;;;;;;17.98;10.82;;;;;;;;;;5014178;28;20022;-67
2022/05/15 13:35:38;;;;;;;17.52;10.48;;;;;;;;;;5004983;28;20113;-66
2022/05/15 13:38:15;;;;;;;21.35;11.25;;;;;;;;;;4994593;28;20430;-67
2022/05/15 13:43:32;;;;;;;19.08;10.93;;;;;;;;;;4994444;28;20506;-67
2022/05/15 13:46:19;;;;;;;18.17;10.38;;;;;;;;;;5001636;28;20030;-66
2022/05/15 13:48:59;;;;;;;18.00;10.75;;;;;;;;;;4996574;28;20038;-67
2022/05/15 13:51:43;;;;;;;19.67;11.88;;;;;;;;;;4994735;28;20026;-66
2022/05/15 13:54:23;;;;;;;19.75;11.25;;;;;;;;;;4994227;28;20030;-68
2022/05/15 13:57:03;;;;;;;21.55;11.55;;;;;;;;;;4994062;28;20030;-67
2022/05/15 13:59:30;;;;;;;21.95;11.80;;;;;;;;;;4997517;28;20026;-67
2022/05/15 14:02:05;;;;;;;22.27;11.80;;;;;;;;;;5011126;28;20038;-68
2022/05/15 14:04:31;;;;;;;18.95;11.27;;;;;;;;;;5002602;28;20029;-67
2022/05/15 14:06:58;;;;;;;26.30;15.07;;;;;;;;;;5013393;28;20494;-68
2022/05/15 14:09:26;;;;;;;19.10;11.15;;;;;;;;;;5015061;28;20471;-67
2022/05/15 14:12:00;;;;;;;19.60;10.55;;;;;;;;;;5006417;28;20096;-67
2022/05/15 14:14:50;;;;;;;24.58;12.40;;;;;;;;;;5026535;28;20044;-66
2022/05/15 14:17:22;;;;;;;18.67;10.75;;;;;;;;;;5005909;28;20026;-67
2022/05/15 14:19:53;;;;;;;23.88;11.05;;;;;;;;;;5000977;28;20045;-68
2022/05/15 14:22:20;;;;;;;19.88;11.90;;;;;;;;;;5010691;28;20089;-67
2022/05/15 14:24:46;;;;;;;20.77;12.65;;;;;;;;;;5007875;28;20030;-67
2022/05/15 14:27:12;;;;;;;26.13;13.90;;;;;;;;;;4996656;28;20593;-67
2022/05/15 14:29:40;;;;;;;32.28;15.52;;;;;;;;;;4993601;28;20037;-67
2022/05/15 14:32:07;;;;;;;26.92;14.70;;;;;;;;;;4993662;28;20074;-68
2022/05/15 14:34:33;;;;;;;22.75;15.10;;;;;;;;;;4993765;28;20480;-68
2022/05/15 14:36:59;;;;;;;32.40;15.48;;;;;;;;;;4993178;28;20041;-67
2022/05/15 14:39:25;;;;;;;28.40;15.82;;;;;;;;;;4993433;28;20019;-67
2022/05/15 14:41:52;;;;;;;26.52;14.43;;;;;;;;;;4993551;28;20036;-68
2022/05/15 14:44:18;;;;;;;28.08;15.88;;;;;;;;;;4993944;28;20049;-67
2022/05/15 14:46:45;;;;;;;39.55;16.63;;;;;;;;;;4993423;28;20038;-68
2022/05/15 14:49:12;;;;;;;30.38;16.02;;;;;;;;;;4993600;28;20018;-68
2022/05/15 14:51:43;;;;;;;33.88;18.13;;;;;;;;;;5001109;28;20022;-68
2022/05/15 14:54:11;;;;;;;34.92;18.75;;;;;;;;;;5011043;28;20026;-68
2022/05/15 14:56:37;;;;;;;35.47;19.55;;;;;;;;;;5011080;28;20030;-71
2022/05/15 14:59:11;;;;;;;35.28;19.23;;;;;;;;;;5012473;28;20026;-72
2022/05/15 15:01:38;;;;;;;36.88;20.08;;;;;;;;;;5006103;28;20018;-73
2022/05/15 15:04:04;;;;;;;37.33;19.52;;;;;;;;;;5011688;28;20088;-71
2022/05/15 15:06:30;;;;;;;37.13;19.70;;;;;;;;;;5005618;28;20022;-70